createdAt,value
2022-08-25T00:04:02.598Z,9.02
2022-08-25T00:06:30.649Z,9.05
2022-08-25T00:08:59.980Z,9.50
2022-08-25T00:11:30.436Z,9.52
2022-08-25T00:14:01.441Z,9.75
2022-08-25T00:16:31.603Z,9.77
2022-08-25T00:19:03.957Z,10.05
2022-08-25T00:21:31.999Z,9.07
2022-08-25T00:24:02.329Z,9.20
2022-08-25T00:26:30.870Z,10.43
2022-08-25T00:29:01.619Z,9.07
2022-08-25T00:31:38.185Z,8.82
2022-08-25T00:34:09.836Z,9.00
2022-08-25T00:36:38.477Z,10.05
2022-08-25T00:39:07.761Z,9.95
2022-08-25T00:41:35.652Z,10.23
2022-08-25T00:44:06.162Z,9.23
2022-08-25T00:46:52.053Z,8.82
2022-08-25T00:49:30.954Z,9.07
2022-08-25T00:52:29.693Z,8.77
2022-08-25T00:55:07.980Z,9.00
2022-08-25T00:57:43.464Z,9.38
2022-08-25T01:00:21.788Z,8.63
2022-08-25T01:02:49.129Z,9.60
2022-08-25T01:05:16.638Z,9.75
2022-08-25T01:07:44.741Z,8.57
2022-08-25T01:10:13.767Z,9.40
2022-08-25T01:12:41.568Z,9.70
2022-08-25T01:15:12.578Z,9.93
2022-08-25T01:17:47.078Z,10.23
2022-08-25T01:22:57.609Z,9.93
2022-08-25T01:25:45.552Z,10.52
2022-08-25T01:28:13.368Z,9.63
2022-08-25T01:30:41.286Z,9.65
2022-08-25T01:33:10.688Z,10.10
2022-08-25T01:35:39.543Z,9.88
2022-08-25T01:38:08.254Z,9.98
2022-08-25T01:40:38.349Z,8.88
2022-08-25T01:43:15.817Z,9.38
2022-08-25T01:45:47.750Z,9.45
2022-08-25T01:48:15.839Z,9.85
2022-08-25T01:50:44.299Z,10.00
2022-08-25T01:53:26.654Z,9.50
2022-08-25T01:56:02.729Z,9.88
2022-08-25T01:58:35.107Z,10.50
2022-08-25T02:01:05.948Z,9.90
2022-08-25T02:03:36.302Z,9.23
2022-08-25T02:06:04.656Z,8.35
2022-08-25T02:08:32.639Z,9.32
2022-08-25T02:11:00.153Z,9.25
2022-08-25T02:13:31.421Z,8.90
2022-08-25T02:16:02.516Z,8.93
2022-08-25T02:18:30.328Z,10.00
2022-08-25T02:20:57.550Z,9.30
2022-08-25T02:23:25.207Z,9.50
2022-08-25T02:25:52.765Z,9.65
2022-08-25T02:28:20.277Z,9.93
2022-08-25T02:30:48.305Z,9.13
2022-08-25T02:33:15.885Z,8.98
2022-08-25T02:35:43.186Z,9.75
2022-08-25T02:38:10.913Z,9.07
2022-08-25T02:40:38.512Z,9.57
2022-08-25T02:43:06.263Z,9.60
2022-08-25T02:45:33.940Z,8.82
2022-08-25T02:48:01.674Z,9.32
2022-08-25T02:50:29.357Z,9.25
2022-08-25T02:52:57.291Z,10.75
2022-08-25T02:55:24.903Z,10.27
2022-08-25T02:57:52.460Z,9.00
2022-08-25T03:00:20.145Z,9.82
2022-08-25T03:02:47.815Z,9.65
2022-08-25T03:05:16.240Z,9.93
2022-08-25T03:07:43.879Z,10.10
2022-08-25T03:10:16.365Z,10.10
2022-08-25T03:12:44.359Z,10.57
2022-08-25T03:15:16.551Z,10.02
2022-08-25T03:17:50.589Z,9.45
2022-08-25T03:20:19.417Z,10.52
2022-08-25T03:22:47.013Z,10.32
2022-08-25T03:25:32.473Z,10.45
2022-08-25T03:28:00.143Z,10.50
2022-08-25T03:30:27.856Z,9.35
2022-08-25T03:32:55.240Z,9.98
2022-08-25T03:35:23.188Z,10.00
2022-08-25T03:37:51.356Z,10.23
2022-08-25T03:40:18.949Z,10.45
2022-08-25T03:42:46.874Z,10.85
2022-08-25T03:45:16.642Z,10.48
2022-08-25T03:47:47.558Z,10.05
2022-08-25T03:50:16.259Z,9.95
2022-08-25T03:52:44.000Z,10.85
2022-08-25T03:55:13.780Z,10.45
2022-08-25T03:57:41.407Z,10.05
2022-08-25T04:00:12.389Z,10.77
2022-08-25T04:02:40.990Z,9.75
2022-08-25T04:05:09.648Z,9.75
2022-08-25T04:07:37.290Z,9.55
2022-08-25T04:10:07.068Z,10.32
2022-08-25T04:12:34.962Z,10.30
2022-08-25T04:15:04.585Z,11.25
2022-08-25T04:17:32.499Z,9.77
2022-08-25T04:20:00.212Z,8.32
2022-08-25T04:22:27.728Z,10.10
2022-08-25T04:24:57.449Z,10.15
2022-08-25T04:27:25.093Z,9.30
2022-08-25T04:29:52.716Z,8.52
2022-08-25T04:32:21.339Z,8.43
2022-08-25T04:34:49.324Z,9.25
2022-08-25T04:37:17.144Z,8.60
2022-08-25T04:39:44.760Z,9.13
2022-08-25T04:42:12.793Z,9.85
2022-08-25T04:44:40.116Z,8.75
2022-08-25T04:47:07.436Z,10.07
2022-08-25T04:49:36.156Z,8.65
2022-08-25T04:52:03.753Z,9.52
2022-08-25T04:54:37.389Z,10.07
2022-08-25T04:57:05.376Z,9.07
2022-08-25T04:59:33.055Z,9.45
2022-08-25T05:02:03.412Z,8.85
2022-08-25T05:04:31.984Z,8.20
2022-08-25T05:06:59.696Z,9.80
2022-08-25T05:09:27.305Z,8.93
2022-08-25T05:11:55.867Z,10.00
2022-08-25T05:14:26.505Z,9.95
2022-08-25T05:16:55.371Z,10.43
2022-08-25T05:19:24.350Z,9.75
2022-08-25T05:21:52.171Z,9.80
2022-08-25T05:24:20.250Z,10.13
2022-08-25T05:26:47.795Z,8.75
2022-08-25T05:29:15.766Z,9.48
2022-08-25T05:31:49.543Z,8.48
2022-08-25T05:34:19.040Z,9.18
2022-08-25T05:36:46.917Z,9.48
2022-08-25T05:39:14.749Z,8.98
2022-08-25T05:41:42.324Z,9.05
2022-08-25T05:44:10.480Z,9.25
2022-08-25T05:46:37.978Z,8.57
2022-08-25T05:49:05.480Z,8.50
2022-08-25T05:51:34.273Z,9.00
2022-08-25T05:54:01.800Z,8.73
2022-08-25T05:56:29.041Z,8.20
2022-08-25T05:58:56.754Z,8.80
2022-08-25T06:01:45.658Z,8.90
2022-08-25T06:04:14.346Z,9.82
2022-08-25T06:06:42.719Z,8.82
2022-08-25T06:09:10.822Z,7.68
2022-08-25T06:11:40.133Z,6.95
2022-08-25T06:14:10.221Z,7.60
2022-08-25T06:16:39.213Z,7.18
2022-08-25T06:19:08.249Z,7.28
2022-08-25T06:21:35.938Z,7.20
2022-08-25T06:24:03.532Z,7.68
2022-08-25T06:26:31.026Z,6.43
2022-08-25T06:28:58.611Z,6.90
2022-08-25T06:31:26.267Z,7.13
2022-08-25T06:33:53.845Z,6.70
2022-08-25T06:36:21.722Z,7.63
2022-08-25T06:38:49.439Z,6.47
2022-08-25T06:41:17.260Z,6.85
2022-08-25T06:43:49.834Z,6.68
2022-08-25T06:46:22.508Z,6.07
2022-08-25T06:49:03.487Z,7.20
2022-08-25T06:51:30.810Z,6.68
2022-08-25T06:53:58.350Z,6.68
2022-08-25T06:56:26.680Z,6.53
2022-08-25T06:58:54.220Z,6.82
2022-08-25T07:01:26.967Z,6.70
2022-08-25T07:03:57.712Z,6.20
2022-08-25T07:06:27.214Z,6.20
2022-08-25T07:08:54.767Z,5.70
2022-08-25T07:11:23.614Z,5.35
2022-08-25T07:13:51.539Z,6.10
2022-08-25T07:16:20.672Z,5.93
2022-08-25T07:18:48.805Z,5.60
2022-08-25T07:21:17.451Z,5.75
2022-08-25T07:23:47.143Z,5.78
2022-08-25T07:29:08.830Z,6.18
2022-08-25T07:31:36.012Z,9.93
2022-08-25T07:34:24.050Z,8.80
2022-08-25T07:36:53.328Z,7.55
2022-08-25T07:39:21.973Z,8.98
2022-08-25T07:41:52.300Z,11.90
2022-08-25T07:44:23.148Z,6.38
2022-08-25T07:46:51.378Z,9.35
2022-08-25T07:49:23.346Z,7.15
2022-08-25T07:52:05.458Z,7.82
2022-08-25T07:54:37.919Z,9.57
2022-08-25T07:57:08.079Z,7.78
2022-08-25T07:59:39.303Z,9.68
2022-08-25T08:02:17.878Z,6.13
2022-08-25T08:04:50.260Z,6.72
2022-08-25T08:07:23.762Z,8.50
2022-08-25T08:10:42.341Z,6.82
2022-08-25T08:12:59.645Z,6.30
2022-08-25T08:15:29.967Z,7.40
2022-08-25T08:17:59.204Z,7.38
2022-08-25T08:20:27.406Z,6.20
2022-08-25T08:22:55.889Z,5.70
2022-08-25T08:25:26.587Z,6.15
2022-08-25T08:27:55.640Z,7.20
2022-08-25T08:30:25.933Z,5.72
2022-08-25T08:33:09.550Z,5.28
2022-08-25T08:35:37.763Z,6.30
2022-08-25T08:38:13.169Z,5.55
2022-08-25T08:41:30.568Z,5.97
2022-08-25T08:44:20.770Z,5.28
2022-08-25T08:47:10.832Z,5.30
2022-08-25T08:49:50.832Z,5.68
2022-08-25T08:52:24.493Z,6.28
2022-08-25T08:55:01.758Z,5.43
2022-08-25T08:57:38.941Z,5.30
2022-08-25T09:00:08.463Z,5.25
2022-08-25T09:02:51.620Z,6.25
2022-08-25T09:05:22.132Z,5.22
2022-08-25T09:07:56.187Z,5.90
2022-08-25T09:10:26.897Z,6.07
2022-08-25T09:13:29.434Z,5.13
2022-08-25T09:16:33.799Z,5.20
2022-08-25T09:19:35.695Z,5.53
2022-08-25T09:22:35.165Z,4.70
2022-08-25T09:25:52.267Z,4.60
2022-08-25T09:28:29.306Z,4.40
2022-08-25T09:31:10.676Z,4.57
2022-08-25T09:33:38.282Z,4.57
2022-08-25T09:36:08.818Z,4.40
2022-08-25T09:38:39.329Z,4.70
2022-08-25T09:41:07.892Z,4.20
2022-08-25T09:43:35.752Z,4.30
2022-08-25T09:46:13.981Z,4.15
2022-08-25T09:48:56.390Z,4.32
2022-08-25T09:51:38.172Z,4.32
2022-08-25T09:54:16.009Z,4.38
2022-08-25T09:56:59.758Z,4.40
2022-08-25T09:59:37.253Z,4.75
2022-08-25T10:02:28.858Z,4.43
2022-08-25T10:04:56.658Z,4.35
2022-08-25T10:07:46.955Z,4.40
2022-08-25T10:10:34.664Z,4.70
2022-08-25T10:13:03.755Z,4.60
2022-08-25T10:18:26.117Z,4.30
2022-08-25T10:21:07.973Z,4.47
2022-08-25T10:23:44.877Z,5.07
2022-08-25T10:26:22.985Z,4.45
2022-08-25T10:29:27.717Z,5.00
2022-08-25T10:32:12.776Z,4.35
2022-08-25T10:34:58.425Z,4.63
2022-08-25T10:37:32.972Z,4.53
2022-08-25T10:40:10.942Z,4.97
2022-08-25T10:43:00.900Z,4.60
2022-08-25T10:45:45.133Z,4.90
2022-08-25T10:48:39.827Z,5.20
2022-08-25T10:51:19.503Z,4.55
2022-08-25T10:54:13.447Z,4.40
2022-08-25T10:57:01.391Z,5.13
2022-08-25T10:59:44.106Z,5.00
2022-08-25T11:05:11.609Z,5.20
2022-08-25T11:07:50.749Z,4.70
2022-08-25T11:10:32.031Z,4.40
2022-08-25T11:13:07.876Z,4.65
2022-08-25T11:16:17.232Z,4.70
2022-08-25T11:19:27.150Z,4.28
2022-08-25T11:22:20.505Z,4.97
2022-08-25T11:25:10.566Z,5.18
2022-08-25T11:28:02.300Z,4.43
2022-08-25T11:30:30.593Z,4.97
2022-08-25T11:32:58.602Z,4.57
2022-08-25T11:35:57.487Z,4.68
2022-08-25T11:39:34.588Z,4.35
2022-08-25T11:42:45.719Z,5.07
2022-08-25T11:45:42.980Z,4.80
2022-08-25T11:48:38.016Z,4.30
2022-08-25T11:51:30.902Z,4.88
2022-08-25T11:54:38.509Z,4.65
2022-08-25T11:57:27.211Z,4.43
2022-08-25T12:00:16.139Z,5.00
2022-08-25T12:02:48.317Z,4.90
2022-08-25T12:05:19.453Z,4.90
2022-08-25T12:08:15.788Z,4.68
2022-08-25T12:11:11.937Z,4.60
2022-08-25T12:13:52.791Z,4.65
2022-08-25T12:20:42.705Z,5.00
2022-08-25T12:23:14.611Z,4.43
2022-08-25T12:29:02.604Z,4.28
2022-08-25T12:36:00.516Z,5.10
2022-08-25T12:38:43.275Z,4.82
2022-08-25T15:11:09.228Z,5.72
2022-08-25T15:46:26.392Z,7.00
2022-08-25T15:49:05.539Z,7.20
2022-08-25T15:51:38.626Z,7.30
2022-08-25T15:54:28.132Z,8.10
2022-08-25T15:56:57.358Z,7.53
2022-08-25T15:59:28.296Z,7.20
2022-08-25T16:01:58.593Z,7.20
2022-08-25T16:04:29.267Z,7.03
2022-08-25T16:06:58.759Z,6.68
2022-08-25T16:09:27.473Z,7.35
2022-08-25T16:14:38.193Z,7.88
2022-08-25T16:17:06.689Z,7.80
2022-08-25T16:19:35.771Z,8.73
2022-08-25T16:22:06.595Z,7.80
2022-08-25T16:24:34.739Z,8.60
2022-08-25T16:27:11.322Z,8.43
2022-08-25T16:29:47.779Z,8.27
2022-08-25T16:32:21.101Z,7.65
2022-08-25T16:34:48.887Z,8.20
2022-08-25T16:37:16.744Z,8.45
2022-08-25T16:39:46.155Z,9.02
2022-08-25T16:42:14.293Z,9.15
2022-08-25T16:44:42.513Z,7.47
2022-08-25T16:47:10.850Z,7.38
2022-08-25T16:49:42.118Z,7.05
2022-08-25T16:52:29.494Z,8.32
2022-08-25T16:55:13.795Z,8.35
2022-08-25T16:57:52.612Z,8.40
2022-08-25T17:00:28.346Z,8.95
2022-08-25T17:03:00.595Z,9.27
2022-08-25T17:05:29.775Z,8.77
2022-08-25T17:08:18.571Z,8.82
2022-08-25T17:10:46.846Z,8.52
2022-08-25T17:13:14.438Z,9.20
2022-08-25T17:15:47.339Z,9.05
2022-08-25T17:18:15.089Z,10.38
2022-08-25T17:20:45.501Z,9.77
2022-08-25T17:23:13.214Z,9.60
2022-08-25T17:25:43.004Z,9.32
2022-08-25T17:28:12.249Z,9.00
2022-08-25T17:30:40.364Z,11.57
2022-08-25T17:33:08.233Z,10.13
2022-08-25T17:35:47.367Z,9.52
2022-08-25T17:38:19.897Z,10.13
2022-08-25T17:40:48.282Z,10.60
2022-08-25T17:43:16.141Z,10.20
2022-08-25T17:45:44.185Z,9.32
2022-08-25T17:48:13.299Z,10.10
2022-08-25T17:50:41.231Z,9.85
2022-08-25T17:53:09.606Z,9.70
2022-08-25T17:55:37.417Z,10.35
2022-08-25T17:58:05.647Z,9.75
2022-08-25T18:00:33.527Z,10.55
2022-08-25T18:03:04.289Z,11.50
2022-08-25T18:05:33.340Z,10.82
2022-08-25T18:08:01.041Z,9.88
2022-08-25T18:10:31.354Z,9.68
2022-08-25T18:13:00.802Z,9.98
2022-08-25T18:15:31.651Z,11.48
2022-08-25T18:17:59.532Z,10.75
2022-08-25T18:20:30.446Z,10.93
2022-08-25T18:22:58.677Z,10.75
2022-08-25T18:25:26.976Z,11.48
2022-08-25T18:30:37.156Z,11.73
2022-08-25T18:33:04.668Z,10.77
2022-08-25T18:35:32.206Z,10.80
2022-08-25T18:38:18.597Z,12.27
2022-08-25T18:40:48.838Z,11.93
2022-08-25T18:43:33.924Z,11.25
2022-08-25T18:46:04.772Z,11.80
2022-08-25T18:48:33.932Z,11.00
2022-08-25T18:51:01.586Z,11.85
2022-08-25T18:53:37.376Z,11.38
2022-08-25T18:56:21.431Z,11.60
2022-08-25T18:58:49.751Z,12.65
2022-08-25T19:01:18.303Z,11.88
2022-08-25T19:03:46.323Z,11.48
2022-08-25T19:06:14.748Z,10.95
